Time;durP1;ratioP1;P1;durP2;ratioP2;P2;SDS_P1;SDS_P2;PMS_P1;PMS_P2;Temp;Humidity;BMP_temperature;BMP_pressure;BME280_temperature;BME280_humidity;BME280_pressure;Samples;Min_cycle;Max_cycle;Signal;HPM_P1;HPM_P2
2023/10/01 00:01:43;;;;;;;17.70;12.70;;;;;;;18.06;53.47;100323.15;88377;273;136691;-71
2023/10/01 00:03:45;;;;;;;18.10;13.10;;;;;;;18.06;53.39;100324.89;88536;281;24904;-67
2023/10/01 00:05:48;;;;;;;14.80;12.40;;;;;;;18.08;53.33;100327.55;88430;281;136657;-65
2023/10/01 00:07:51;;;;;;;19.20;13.60;;;;;;;18.09;53.37;100328.98;88631;278;22534;-73
2023/10/01 00:09:53;;;;;;;16.60;12.80;;;;;;;18.09;53.51;100323.48;88360;276;136196;-68
2023/10/01 00:11:55;;;;;;;15.90;12.80;;;;;;;18.08;53.66;100321.47;88556;281;22857;-69
2023/10/01 00:13:57;;;;;;;17.70;14.20;;;;;;;18.05;53.55;100320.73;88523;282;135945;-66
2023/10/01 00:15:59;;;;;;;19.80;13.20;;;;;;;18.02;53.60;100322.83;88622;281;22530;-66
2023/10/01 00:18:05;;;;;;;20.30;14.00;;;;;;;17.99;53.53;100320.73;88482;278;22536;-67
2023/10/01 00:20:23;;;;;;;18.50;13.10;;;;;;;17.98;53.23;100316.70;88353;278;138095;-73
2023/10/01 00:22:24;;;;;;;19.20;14.70;;;;;;;17.97;53.12;100312.83;88578;274;25212;-65
2023/10/01 00:24:26;;;;;;;17.30;13.70;;;;;;;17.97;53.09;100318.84;88394;281;136515;-68
2023/10/01 00:26:28;;;;;;;15.70;14.00;;;;;;;17.96;53.02;100317.11;88667;277;22095;-68
2023/10/01 00:28:30;;;;;;;20.50;13.90;;;;;;;17.95;53.09;100320.13;88416;281;137864;-69
2023/10/01 00:30:32;;;;;;;15.00;12.80;;;;;;;17.95;53.20;100319.84;88619;274;22556;-68
2023/10/01 00:32:37;;;;;;;19.10;12.60;;;;;;;17.95;52.84;100318.21;88713;274;137677;-74
2023/10/01 00:34:39;;;;;;;18.20;12.50;;;;;;;17.94;52.26;100322.09;88673;273;25117;-66
2023/10/01 00:36:43;;;;;;;23.00;12.60;;;;;;;17.95;52.30;100320.02;88489;273;138302;-67
2023/10/01 00:38:45;;;;;;;17.30;12.10;;;;;;;17.95;52.08;100319.75;88578;281;25324;-69
2023/10/01 00:40:50;;;;;;;16.80;13.20;;;;;;;17.97;52.13;100312.44;88396;281;137530;-67
2023/10/01 00:42:51;;;;;;;;;;;;;;;17.98;52.21;100311.10;88584;274;24266;-68
2023/10/01 00:44:54;;;;;;;22.10;13.10;;;;;;;17.99;51.85;100315.56;88442;281;122932;-67
2023/10/01 00:46:56;;;;;;;16.40;11.80;;;;;;;17.99;51.74;100312.33;88226;281;477441;-68
2023/10/01 00:49:00;;;;;;;24.50;12.60;;;;;;;18.01;51.76;100308.31;88613;281;136439;-67
2023/10/01 00:51:04;;;;;;;17.00;11.70;;;;;;;18.02;51.88;100308.81;88484;275;22628;-66
2023/10/01 00:53:08;;;;;;;16.10;13.10;;;;;;;18.02;51.76;100307.48;88500;274;139095;-68
2023/10/01 00:55:13;;;;;;;13.90;12.50;;;;;;;18.02;52.02;100307.48;88570;273;24170;-67
2023/10/01 00:57:15;;;;;;;16.10;11.70;;;;;;;17.95;52.05;100294.42;88502;278;136650;-67
2023/10/01 00:59:17;;;;;;;19.10;13.00;;;;;;;18.02;52.13;100305.95;88601;277;22534;-68
2023/10/01 01:01:19;;;;;;;16.90;12.50;;;;;;;18.02;52.28;100309.35;88505;273;136773;-69
2023/10/01 01:03:22;;;;;;;19.70;12.40;;;;;;;18.00;52.51;100304.63;88610;273;25171;-68
2023/10/01 01:05:28;;;;;;;14.90;12.10;;;;;;;18.01;52.88;100306.70;88521;274;137669;-69
2023/10/01 01:07:32;;;;;;;16.50;11.90;;;;;;;17.99;53.02;100296.94;88577;277;22794;-70
2023/10/01 01:09:36;;;;;;;14.00;12.60;;;;;;;17.96;52.90;100303.84;88482;281;137526;-68
2023/10/01 01:11:38;;;;;;;18.00;12.90;;;;;;;17.93;53.06;100305.55;88619;281;24053;-66
2023/10/01 01:13:40;;;;;;;17.60;11.90;;;;;;;17.90;53.20;100299.40;88368;282;136398;-68
2023/10/01 01:15:45;;;;;;;19.70;14.00;;;;;;;17.86;53.44;100295.12;88682;275;24181;-69
2023/10/01 01:17:50;;;;;;;17.90;12.90;;;;;;;17.82;53.64;100295.85;88353;276;136139;-67
2023/10/01 01:19:53;;;;;;;18.00;14.20;;;;;;;17.80;53.69;100302.06;88511;283;23646;-75
2023/10/01 01:21:56;;;;;;;17.10;12.90;;;;;;;17.77;53.88;100295.77;88447;281;137161;-69
2023/10/01 01:24:03;;;;;;;20.30;15.20;;;;;;;17.68;54.09;100288.06;88544;281;26247;-66
2023/10/01 01:26:07;;;;;;;13.10;11.40;;;;;;;17.72;54.39;100300.98;88582;281;22858;-67
2023/10/01 01:28:12;;;;;;;16.90;12.80;;;;;;;17.69;54.65;100300.33;88544;281;137379;-72
2023/10/01 01:30:19;;;;;;;14.80;11.80;;;;;;;17.66;54.90;100292.66;88566;280;25328;-71
2023/10/01 01:32:21;;;;;;;19.40;13.50;;;;;;;17.62;55.20;100293.59;88494;280;136819;-67
2023/10/01 01:34:24;;;;;;;19.00;13.60;;;;;;;17.57;55.37;100290.08;88378;283;25083;-63
2023/10/01 01:36:30;;;;;;;15.10;12.70;;;;;;;17.52;55.34;100294.39;88338;282;136459;-68
2023/10/01 01:38:33;;;;;;;19.20;13.00;;;;;;;17.48;55.46;100295.23;88614;281;25239;-68
2023/10/01 01:40:40;;;;;;;16.50;13.40;;;;;;;17.44;55.66;100297.45;88480;281;136589;-71
2023/10/01 01:42:42;;;;;;;18.80;13.00;;;;;;;17.41;56.38;100297.16;88433;281;25150;-66
2023/10/01 01:44:44;;;;;;;18.10;13.40;;;;;;;17.37;57.10;100294.17;88352;281;137643;-69
2023/10/01 01:46:49;;;;;;;18.50;13.60;;;;;;;17.30;57.21;100295.36;88408;274;25325;-69
2023/10/01 01:48:52;;;;;;;21.70;14.00;;;;;;;17.23;57.35;100287.93;88481;281;140017;-70
2023/10/01 01:50:55;;;;;;;17.40;12.80;;;;;;;17.17;57.84;100291.77;88503;282;25169;-66
2023/10/01 01:52:57;;;;;;;19.30;13.80;;;;;;;17.11;58.14;100287.42;88413;280;136676;-69
2023/10/01 01:55:22;;;;;;;21.40;13.20;;;;;;;17.06;58.30;100286.86;88541;277;24051;-69
2023/10/01 01:57:25;;;;;;;15.70;13.50;;;;;;;17.00;58.45;100287.46;88428;281;138425;-66
2023/10/01 01:59:31;;;;;;;14.80;12.80;;;;;;;16.95;58.93;100285.80;88618;280;22560;-70
2023/10/01 02:01:35;;;;;;;17.60;14.30;;;;;;;16.89;59.24;100283.08;88431;281;137388;-66
2023/10/01 02:03:39;;;;;;;16.90;13.80;;;;;;;16.83;60.07;100282.11;88621;281;25131;-69
2023/10/01 02:05:41;;;;;;;14.70;13.20;;;;;;;16.78;60.60;100281.35;88355;276;136563;-68
2023/10/01 02:07:43;;;;;;;19.20;14.30;;;;;;;16.72;60.80;100279.81;88395;279;24237;-69
2023/10/01 02:09:45;;;;;;;16.80;14.50;;;;;;;16.68;61.08;100281.58;88173;275;137106;-65
2023/10/01 02:11:48;;;;;;;19.50;13.50;;;;;;;16.64;61.71;100286.28;88376;275;22539;-70
2023/10/01 02:13:54;;;;;;;25.60;14.10;;;;;;;16.58;62.30;100282.56;88307;275;137331;-70
2023/10/01 02:16:18;;;;;;;16.90;13.70;;;;;;;16.51;62.40;100280.72;88280;276;23245;-69
2023/10/01 02:18:20;;;;;;;19.60;14.40;;;;;;;16.42;63.13;100279.14;88422;281;26177;-72
2023/10/01 02:20:27;;;;;;;26.30;13.90;;;;;;;16.35;63.84;100279.52;88345;281;137289;-71
2023/10/01 02:22:31;;;;;;;18.20;14.00;;;;;;;16.26;64.32;100280.98;88448;274;22627;-72
2023/10/01 02:24:44;;;;;;;14.50;13.00;;;;;;;16.17;64.97;100281.05;88261;275;136335;-71
2023/10/01 02:26:46;;;;;;;15.50;13.70;;;;;;;16.06;65.23;100276.97;88331;275;22612;-69
2023/10/01 02:28:50;;;;;;;18.30;14.10;;;;;;;15.98;65.76;100283.96;88302;273;137411;-70
2023/10/01 02:31:00;;;;;;;18.20;15.40;;;;;;;15.91;66.32;100286.86;88285;276;25112;-69
2023/10/01 02:33:17;;;;;;;18.00;14.70;;;;;;;15.83;66.75;100280.71;88457;277;136664;-72
2023/10/01 02:35:35;;;;;;;18.10;14.70;;;;;;;15.74;67.25;100280.13;88236;283;25093;-72
2023/10/01 02:37:37;;;;;;;16.80;14.40;;;;;;;15.66;67.80;100281.12;88375;275;138193;-70
2023/10/01 02:39:39;;;;;;;17.60;13.70;;;;;;;15.60;68.36;100285.27;88419;274;22609;-71
2023/10/01 02:41:40;;;;;;;16.80;14.00;;;;;;;15.52;68.85;100284.70;88342;281;137842;-71
2023/10/01 02:43:45;;;;;;;17.60;14.10;;;;;;;15.46;69.09;100280.41;88426;273;25124;-72
2023/10/01 02:45:50;;;;;;;20.30;13.60;;;;;;;15.41;69.86;100278.23;88429;281;136703;-72
2023/10/01 02:48:13;;;;;;;17.50;15.30;;;;;;;15.35;70.07;100279.19;88578;281;22533;-72
2023/10/01 02:50:15;;;;;;;17.90;14.40;;;;;;;15.31;70.53;100274.85;88450;282;22534;-72
2023/10/01 02:52:25;;;;;;;16.40;14.00;;;;;;;15.27;70.86;100274.39;88408;283;136816;-72
2023/10/01 02:54:28;;;;;;;17.50;14.00;;;;;;;15.21;70.95;100273.13;88875;281;22524;-73
2023/10/01 02:56:38;;;;;;;18.50;15.10;;;;;;;15.17;70.95;100278.70;88343;279;137214;-71
2023/10/01 02:58:45;;;;;;;19.40;15.60;;;;;;;15.12;70.93;100277.00;88483;277;22822;-71
2023/10/01 03:00:50;;;;;;;17.30;13.70;;;;;;;15.04;70.73;100270.91;88207;276;136135;-71
2023/10/01 03:02:53;;;;;;;19.30;15.10;;;;;;;15.05;70.96;100275.57;89246;279;22538;-71
2023/10/01 03:05:07;;;;;;;19.30;13.60;;;;;;;15.02;71.02;100277.75;88510;273;137857;-71
2023/10/01 03:07:09;;;;;;;20.00;15.40;;;;;;;14.99;71.54;100276.21;88803;282;23290;-71
2023/10/01 03:09:22;;;;;;;17.50;15.70;;;;;;;14.95;71.60;100271.19;88315;277;136851;-71
2023/10/01 03:11:24;;;;;;;18.80;15.20;;;;;;;14.91;71.56;100277.59;90325;282;23001;-70
2023/10/01 03:13:30;;;;;;;17.50;15.00;;;;;;;14.88;71.89;100277.27;88443;274;136846;-70
2023/10/01 03:15:35;;;;;;;20.40;15.20;;;;;;;14.86;71.93;100275.23;88480;281;22674;-69
2023/10/01 03:17:45;;;;;;;22.70;14.90;;;;;;;14.84;72.02;100272.14;88400;274;136680;-72
2023/10/01 03:19:52;;;;;;;19.90;16.20;;;;;;;14.80;71.80;100272.80;88573;277;25041;-72
2023/10/01 03:24:03;;;;;;;19.10;15.40;;;;;;;14.75;71.84;100271.02;88555;278;137139;-71
2023/10/01 03:26:08;;;;;;;18.50;14.60;;;;;;;14.73;72.11;100267.48;88449;281;22603;-72
2023/10/01 03:30:34;;;;;;;24.10;16.10;;;;;;;14.67;73.10;100270.38;88333;273;24049;-71
2023/10/01 03:32:40;;;;;;;22.00;15.90;;;;;;;14.63;73.65;100269.04;88430;277;136654;-70
2023/10/01 03:34:43;;;;;;;22.30;16.60;;;;;;;14.57;74.27;100271.79;88472;281;22548;-69
2023/10/01 03:36:52;;;;;;;19.30;14.90;;;;;;;14.51;74.90;100269.16;88399;277;137386;-70
2023/10/01 03:38:59;;;;;;;19.90;16.20;;;;;;;14.46;75.57;100269.48;88455;281;22543;-70
2023/10/01 03:41:02;;;;;;;22.30;16.00;;;;;;;14.45;75.68;100271.71;88397;281;137551;-70
2023/10/01 03:43:05;;;;;;;20.30;14.60;;;;;;;14.44;76.20;100272.17;88483;281;22564;-69
2023/10/01 03:47:12;;;;;;;24.40;16.80;;;;;;;14.42;76.40;100276.84;88738;273;22551;-71
2023/10/01 03:51:58;;;;;;;25.00;17.50;;;;;;;14.46;77.07;100277.81;88485;281;24584;-69
2023/10/01 03:54:06;;;;;;;26.70;16.80;;;;;;;14.52;76.87;100277.61;88250;283;136490;-70
2023/10/01 03:56:08;;;;;;;20.50;16.80;;;;;;;14.57;76.82;100279.38;88545;281;137046;-70
2023/10/01 03:58:18;;;;;;;24.40;18.00;;;;;;;14.62;76.87;100279.30;88686;282;22534;-69
2023/10/01 04:00:40;;;;;;;21.00;18.20;;;;;;;14.65;76.54;100282.27;88563;281;138084;-70
2023/10/01 04:05:21;;;;;;;19.90;17.60;;;;;;;14.68;76.69;100300.03;88323;273;136676;-73
2023/10/01 04:07:11;;;;;;;20.00;17.90;;;;;;;14.69;76.61;100300.65;88509;274;25108;-70
2023/10/01 04:09:19;;;;;;;20.10;17.60;;;;;;;14.68;77.10;100298.64;88404;273;136406;-69
2023/10/01 04:11:41;;;;;;;22.80;19.20;;;;;;;14.67;77.61;100301.42;88527;274;22523;-72
2023/10/01 04:13:43;;;;;;;21.90;17.90;;;;;;;14.66;77.90;100306.40;88222;275;138320;-71
2023/10/01 04:15:48;;;;;;;19.60;17.40;;;;;;;14.67;78.00;100308.88;88464;274;22523;-70
2023/10/01 04:18:09;;;;;;;19.30;17.40;;;;;;;14.67;78.04;100311.39;88337;273;137072;-69
2023/10/01 04:20:19;;;;;;;22.40;17.00;;;;;;;14.67;78.41;100315.27;88415;277;137001;-71
2023/10/01 04:22:21;;;;;;;27.00;17.10;;;;;;;14.69;78.98;100317.48;88580;274;22550;-70
2023/10/01 04:24:24;;;;;;;23.20;17.00;;;;;;;14.73;79.41;100323.04;88415;274;137842;-70
2023/10/01 04:26:26;;;;;;;20.60;18.10;;;;;;;14.77;79.43;100324.33;88483;274;22640;-71
2023/10/01 04:28:31;;;;;;;20.90;17.80;;;;;;;14.87;79.82;100323.23;88136;275;137088;-73
2023/10/01 04:30:34;;;;;;;25.00;18.10;;;;;;;14.98;80.03;100332.32;88556;278;22530;-70
2023/10/01 04:32:36;;;;;;;23.60;16.60;;;;;;;15.17;79.63;100335.45;88295;273;137161;-70
2023/10/01 04:34:41;;;;;;;25.90;17.00;;;;;;;15.39;79.30;100333.52;88687;281;22517;-72
2023/10/01 04:36:50;;;;;;;19.40;16.70;;;;;;;15.60;78.64;100329.91;88624;279;137409;-69
2023/10/01 04:39:00;;;;;;;20.60;15.80;;;;;;;15.80;78.02;100335.23;88995;277;22642;-68
2023/10/01 04:41:10;;;;;;;17.40;15.70;;;;;;;15.96;77.91;100333.08;88330;281;136462;-67
2023/10/01 04:43:15;;;;;;;19.00;15.40;;;;;;;16.12;77.33;100332.82;88614;273;22531;-71
2023/10/01 04:45:24;;;;;;;17.80;15.50;;;;;;;16.35;77.10;100332.05;88384;273;136687;-71
2023/10/01 04:50:11;;;;;;;17.20;15.30;;;;;;;16.77;76.34;100331.09;86939;304;601978;-68
2023/10/01 04:52:17;;;;;;;20.90;15.00;;;;;;;17.05;75.73;100328.20;87780;285;136185;-72
2023/10/01 04:54:21;;;;;;;19.60;15.20;;;;;;;17.31;75.34;100334.98;87755;292;22542;-69
2023/10/01 04:56:25;;;;;;;16.40;13.80;;;;;;;17.43;75.06;100331.45;88187;280;136044;-71
2023/10/01 04:58:29;;;;;;;16.70;14.50;;;;;;;17.56;75.03;100333.88;88186;287;22560;-71
2023/10/01 05:00:31;;;;;;;14.70;13.20;;;;;;;17.75;74.54;100336.35;88152;280;135843;-69
2023/10/01 05:02:36;;;;;;;14.30;12.80;;;;;;;18.01;73.89;100338.96;88159;280;22602;-69
2023/10/01 05:04:41;;;;;;;14.00;12.60;;;;;;;18.33;72.78;100334.64;87869;278;599197;-69
2023/10/01 05:06:43;;;;;;;15.10;13.60;;;;;;;18.63;71.70;100336.23;88176;278;22537;-70
2023/10/01 05:08:49;;;;;;;14.10;12.60;;;;;;;18.95;70.59;100335.90;88142;285;136126;-69
2023/10/01 05:10:56;;;;;;;18.40;13.70;;;;;;;19.25;69.11;100329.55;88108;284;22548;-71
2023/10/01 05:12:58;;;;;;;15.20;12.60;;;;;;;19.42;68.21;100330.56;88045;282;137361;-71
2023/10/01 05:15:01;;;;;;;13.90;12.60;;;;;;;19.53;67.98;100331.44;88249;282;25044;-69
2023/10/01 05:17:07;;;;;;;15.00;12.40;;;;;;;19.65;67.51;100335.39;88122;285;136649;-73
2023/10/01 05:19:10;;;;;;;16.60;12.90;;;;;;;19.85;67.02;100335.86;88349;282;25086;-70
2023/10/01 05:21:13;;;;;;;13.10;10.60;;;;;;;20.07;65.91;100336.97;88002;286;136276;-70
2023/10/01 05:23:17;;;;;;;14.30;12.70;;;;;;;20.21;65.43;100334.98;88388;286;22606;-70
2023/10/01 05:25:19;;;;;;;13.40;12.10;;;;;;;20.28;65.35;100334.02;88001;279;136396;-73
2023/10/01 05:27:23;;;;;;;12.60;11.50;;;;;;;20.23;65.54;100335.96;88180;279;25169;-71
2023/10/01 05:29:25;;;;;;;12.20;11.00;;;;;;;20.15;65.90;100339.00;88191;286;136458;-72
2023/10/01 05:31:29;;;;;;;12.70;11.50;;;;;;;20.12;66.25;100344.00;88155;279;22534;-70
2023/10/01 05:33:34;;;;;;;13.30;12.10;;;;;;;20.16;66.43;100350.54;88110;280;137176;-69
2023/10/01 05:35:44;;;;;;;14.40;11.90;;;;;;;20.16;66.66;100355.48;88360;282;25239;-70
2023/10/01 05:37:46;;;;;;;12.30;11.10;;;;;;;20.23;66.76;100360.53;88220;281;136319;-74
2023/10/01 05:39:55;;;;;;;13.00;11.90;;;;;;;20.34;66.43;100363.54;88417;281;25191;-69
2023/10/01 05:42:14;;;;;;;12.40;11.20;;;;;;;20.41;66.31;100366.86;88115;279;23836;-71
2023/10/01 05:44:18;;;;;;;13.00;10.90;;;;;;;20.35;66.79;100370.23;88173;281;136312;-70
2023/10/01 05:46:22;;;;;;;14.20;12.10;;;;;;;20.34;67.06;100369.66;88306;277;24547;-71
2023/10/01 05:48:25;;;;;;;11.90;10.80;;;;;;;20.39;67.11;100371.30;88124;277;136271;-71
2023/10/01 05:50:29;;;;;;;11.90;10.80;;;;;;;20.35;67.34;100378.71;88188;284;24017;-70
2023/10/01 05:52:31;;;;;;;12.70;11.50;;;;;;;20.23;67.70;100381.54;88192;284;136321;-74
2023/10/01 05:54:34;;;;;;;11.50;10.50;;;;;;;19.88;69.60;100380.27;88124;285;22534;-71
2023/10/01 05:56:43;;;;;;;12.50;11.30;;;;;;;19.40;71.88;100380.75;90052;284;136347;-72
2023/10/01 05:58:45;;;;;;;13.00;11.90;;;;;;;18.97;74.16;100386.35;88553;284;22843;-71
2023/10/01 06:00:56;;;;;;;16.20;13.00;;;;;;;18.61;77.45;100389.48;88011;282;136195;-71
2023/10/01 06:03:02;;;;;;;13.40;12.10;;;;;;;18.25;80.09;100394.80;88262;285;22914;-70
2023/10/01 06:05:22;;;;;;;14.10;12.60;;;;;;;17.97;82.24;100400.35;88135;278;137154;-71
2023/10/01 06:07:24;;;;;;;14.40;12.90;;;;;;;17.69;84.72;100399.41;88199;278;23048;-70
2023/10/01 06:09:33;;;;;;;12.90;11.80;;;;;;;17.49;86.31;100400.52;88013;278;136781;-70
2023/10/01 06:12:03;;;;;;;12.40;11.40;;;;;;;17.35;87.69;100403.50;88186;282;22541;-71
2023/10/01 06:14:07;;;;;;;13.70;12.30;;;;;;;17.25;90.30;100403.81;88447;285;22474;-69
2023/10/01 06:16:11;;;;;;;14.40;12.80;;;;;;;17.15;91.48;100404.35;88342;277;137383;-71
2023/10/01 06:18:14;;;;;;;13.00;11.70;;;;;;;17.03;92.54;100403.86;88376;278;25213;-73
2023/10/01 06:20:26;;;;;;;12.70;11.40;;;;;;;16.94;94.62;100407.46;88263;276;136904;-71
2023/10/01 06:22:30;;;;;;;14.20;12.70;;;;;;;16.85;96.65;100409.36;88251;281;22395;-72
2023/10/01 06:24:33;;;;;;;12.90;11.60;;;;;;;16.77;98.48;100410.48;88186;277;136979;-71
2023/10/01 06:26:42;;;;;;;12.70;11.50;;;;;;;16.70;100.00;100409.48;88352;277;22537;-74
2023/10/01 06:28:46;;;;;;;12.60;11.50;;;;;;;16.66;100.00;100411.77;88119;277;138232;-73
2023/10/01 06:30:48;;;;;;;12.20;11.10;;;;;;;16.63;100.00;100409.70;88400;281;22599;-70
2023/10/01 06:32:51;;;;;;;12.30;11.10;;;;;;;16.62;100.00;100413.73;88221;278;137557;-70
2023/10/01 06:34:57;;;;;;;13.40;12.00;;;;;;;16.65;100.00;100413.98;88376;278;22534;-72
2023/10/01 06:37:01;;;;;;;14.20;12.40;;;;;;;16.68;100.00;100414.44;88276;277;137190;-72
2023/10/01 06:39:06;;;;;;;12.90;11.70;;;;;;;16.70;100.00;100416.90;88465;278;22526;-68
2023/10/01 06:41:13;;;;;;;14.10;12.50;;;;;;;16.72;100.00;100422.92;88316;278;137330;-66
2023/10/01 06:43:15;;;;;;;12.50;11.30;;;;;;;16.71;100.00;100423.35;88311;277;22530;-67
2023/10/01 06:45:17;;;;;;;13.50;12.30;;;;;;;16.70;100.00;100428.00;88387;282;137043;-69
2023/10/01 06:47:23;;;;;;;15.10;13.10;;;;;;;16.71;100.00;100424.48;88277;277;24061;-73
2023/10/01 06:49:25;;;;;;;14.90;13.30;;;;;;;16.71;100.00;100428.77;88263;277;137277;-75
2023/10/01 06:51:37;;;;;;;14.00;12.70;;;;;;;16.69;100.00;100434.38;88289;281;23014;-73
2023/10/01 06:53:45;;;;;;;14.40;12.90;;;;;;;16.71;100.00;100434.21;88511;278;138398;-71
2023/10/01 06:55:47;;;;;;;14.90;11.80;;;;;;;16.73;100.00;100436.41;88403;277;23333;-70
2023/10/01 06:57:50;;;;;;;13.40;12.20;;;;;;;16.74;100.00;100437.80;88043;277;136614;-71
2023/10/01 06:59:56;;;;;;;13.50;12.10;;;;;;;16.74;100.00;100441.04;88376;278;22544;-70
2023/10/01 07:01:59;;;;;;;13.20;11.80;;;;;;;16.72;100.00;100436.72;88323;277;138236;-72
2023/10/01 07:04:03;;;;;;;13.80;11.80;;;;;;;16.71;100.00;100438.59;88569;282;22637;-71
2023/10/01 07:06:05;;;;;;;12.90;11.60;;;;;;;16.67;100.00;100446.71;88350;278;26180;-72
2023/10/01 07:08:06;;;;;;;13.00;11.80;;;;;;;16.66;100.00;100452.15;88176;284;137339;-73
2023/10/01 07:10:10;;;;;;;13.40;11.80;;;;;;;16.66;100.00;100455.76;88111;280;24209;-72
2023/10/01 07:12:13;;;;;;;13.60;12.20;;;;;;;16.67;100.00;100452.89;88182;282;138660;-72
2023/10/01 07:14:18;;;;;;;15.60;12.40;;;;;;;16.68;100.00;100460.73;88484;277;23525;-71
2023/10/01 07:16:35;;;;;;;28.80;13.10;;;;;;;16.71;100.00;100461.98;88221;278;137263;-70
2023/10/01 07:18:38;;;;;;;10.90;10.00;;;;;;;16.74;100.00;100467.50;88406;282;22549;-70
2023/10/01 07:20:44;;;;;;;13.00;11.20;;;;;;;16.75;100.00;100469.59;88206;282;136994;-71
2023/10/01 07:22:46;;;;;;;10.80;9.50;;;;;;;16.75;100.00;100469.81;88188;278;25184;-74
2023/10/01 07:24:48;;;;;;;12.30;9.80;;;;;;;16.74;100.00;100468.31;88093;278;136812;-71
2023/10/01 07:26:51;;;;;;;10.00;9.10;;;;;;;16.72;100.00;100473.48;88144;282;22674;-71
2023/10/01 07:28:57;;;;;;;9.90;9.00;;;;;;;16.66;100.00;100474.47;88016;287;137309;-72
2023/10/01 07:31:07;;;;;;;10.60;9.10;;;;;;;16.62;100.00;100476.25;88183;278;25086;-71
2023/10/01 07:33:09;;;;;;;9.10;8.10;;;;;;;16.58;100.00;100478.42;88281;275;136950;-71
2023/10/01 07:35:13;;;;;;;13.10;9.10;;;;;;;16.58;100.00;100480.41;88364;279;25118;-72
2023/10/01 07:37:25;;;;;;;9.90;9.00;;;;;;;16.58;100.00;100484.50;90047;281;139318;-71
2023/10/01 07:39:35;;;;;;;12.60;9.60;;;;;;;16.56;100.00;100486.58;88349;282;22544;-72
2023/10/01 07:41:39;;;;;;;11.40;8.80;;;;;;;16.53;100.00;100484.09;88302;281;137063;-73
2023/10/01 07:43:42;;;;;;;10.60;8.80;;;;;;;16.51;100.00;100482.41;89872;282;22474;-73
2023/10/01 07:45:55;;;;;;;10.90;9.40;;;;;;;16.43;100.00;100476.25;90248;279;138475;-71
2023/10/01 07:48:04;;;;;;;8.20;7.50;;;;;;;16.51;100.00;100486.83;90023;282;22536;-72
2023/10/01 07:50:12;;;;;;;11.90;9.40;;;;;;;16.53;100.00;100490.91;89269;275;24946;-72
2023/10/01 07:52:19;;;;;;;10.30;9.20;;;;;;;16.53;100.00;100492.81;88491;279;137336;-72
2023/10/01 07:54:23;;;;;;;9.50;8.50;;;;;;;16.53;100.00;100492.04;88830;279;25457;-72
2023/10/01 07:56:25;;;;;;;8.70;7.00;;;;;;;16.54;100.00;100496.17;88419;275;137015;-72
2023/10/01 07:58:45;;;;;;;7.60;6.60;;;;;;;16.55;100.00;100500.98;88453;281;22542;-71
2023/10/01 08:00:58;;;;;;;13.80;7.70;;;;;;;16.53;100.00;100500.55;88397;277;137181;-71
2023/10/01 08:05:22;;;;;;;8.10;5.30;;;;;;;16.47;100.00;100497.04;88249;281;137004;-71
2023/10/01 08:07:30;;;;;;;5.40;4.70;;;;;;;16.47;100.00;100497.56;88396;281;22528;-70
2023/10/01 08:09:39;;;;;;;6.90;4.70;;;;;;;16.48;100.00;100503.73;88256;275;136778;-70
2023/10/01 08:12:05;;;;;;;10.30;4.30;;;;;;;16.44;100.00;100499.21;88517;274;25060;-71
2023/10/01 08:14:06;;;;;;;6.00;4.40;;;;;;;16.44;100.00;100505.34;88394;275;25275;-70
2023/10/01 08:16:13;;;;;;;5.40;4.30;;;;;;;16.44;100.00;100502.73;88371;281;137182;-73
2023/10/01 08:20:36;;;;;;;7.40;4.20;;;;;;;16.42;100.00;100507.70;88327;274;138680;-72
2023/10/01 08:22:44;;;;;;;3.40;3.10;;;;;;;16.38;100.00;100506.77;88597;273;23712;-70
2023/10/01 08:24:49;;;;;;;6.90;3.60;;;;;;;16.35;100.00;100506.41;88502;275;137290;-70
2023/10/01 08:27:12;;;;;;;3.80;2.10;;;;;;;16.34;100.00;100512.46;88456;278;23338;-72
2023/10/01 08:29:15;;;;;;;5.20;3.20;;;;;;;16.33;100.00;100507.80;90522;280;137117;-71
2023/10/01 08:32:22;;;;;;;6.20;3.40;;;;;;;16.29;100.00;100508.64;89466;273;22600;-71
2023/10/01 08:33:51;;;;;;;3.90;2.40;;;;;;;16.26;100.00;100511.85;88232;274;137272;-73
2023/10/01 08:36:12;;;;;;;2.90;2.40;;;;;;;16.23;100.00;100516.96;88418;282;22534;-72
2023/10/01 08:38:15;;;;;;;5.80;2.00;;;;;;;16.22;100.00;100521.33;88691;274;25213;-71
2023/10/01 08:40:17;;;;;;;3.90;2.90;;;;;;;16.21;100.00;100524.85;88483;282;137990;-70
2023/10/01 08:42:22;;;;;;;2.40;2.00;;;;;;;16.20;100.00;100524.65;88419;282;24028;-74
2023/10/01 08:44:30;;;;;;;5.70;2.20;;;;;;;16.20;100.00;100529.70;88252;278;137141;-71
2023/10/01 08:46:39;;;;;;;5.30;2.00;;;;;;;16.19;100.00;100523.55;88402;274;22537;-72
2023/10/01 08:48:42;;;;;;;3.30;2.00;;;;;;;16.18;100.00;100527.81;88386;274;137993;-70
2023/10/01 08:50:48;;;;;;;2.70;1.80;;;;;;;16.16;100.00;100526.91;88556;277;24853;-69
2023/10/01 08:52:55;;;;;;;;;;;;;;;16.15;100.00;100526.41;88397;273;138272;-70
2023/10/01 08:54:57;;;;;;;;;;;;;;;16.11;100.00;100524.60;88343;282;22535;-72
2023/10/01 08:56:59;;;;;;;3.30;2.30;;;;;;;16.06;100.00;100528.58;88368;282;123673;-75
2023/10/01 08:59:23;;;;;;;5.30;2.20;;;;;;;16.03;100.00;100534.15;88382;275;25027;-73
2023/10/01 09:01:27;;;;;;;2.90;1.90;;;;;;;16.02;100.00;100538.08;88276;282;138445;-73
2023/10/01 09:03:30;;;;;;;2.50;1.80;;;;;;;16.01;100.00;100544.17;88430;279;24055;-71
2023/10/01 09:05:34;;;;;;;2.70;2.10;;;;;;;16.02;100.00;100544.73;88264;275;138168;-72
2023/10/01 09:07:41;;;;;;;2.40;1.70;;;;;;;16.00;100.00;100540.05;88512;281;25103;-69
2023/10/01 09:10:02;;;;;;;2.40;2.00;;;;;;;15.95;100.00;100541.23;88375;275;137041;-69
2023/10/01 09:12:18;;;;;;;2.10;2.00;;;;;;;15.90;100.00;100545.87;88451;274;138953;-71
2023/10/01 09:14:35;;;;;;;2.00;1.80;;;;;;;15.89;100.00;100548.98;88511;279;23369;-74
2023/10/01 09:16:42;;;;;;;3.00;2.40;;;;;;;15.88;100.00;100548.38;88499;281;137282;-74
2023/10/01 09:19:03;;;;;;;3.50;2.20;;;;;;;15.86;100.00;100550.44;88495;275;26388;-72
2023/10/01 09:21:09;;;;;;;3.50;2.20;;;;;;;15.81;100.00;100540.89;88379;275;137280;-71
2023/10/01 09:23:11;;;;;;;3.30;1.70;;;;;;;15.80;100.00;100544.48;88595;282;22530;-72
2023/10/01 09:25:19;;;;;;;4.90;2.10;;;;;;;15.79;100.00;100540.83;88319;275;137491;-74
2023/10/01 09:27:28;;;;;;;4.00;2.40;;;;;;;15.80;100.00;100545.08;88527;275;24007;-71
2023/10/01 09:29:32;;;;;;;4.10;2.00;;;;;;;15.82;100.00;100541.29;88289;274;137321;-73
2023/10/01 09:31:58;;;;;;;3.30;1.80;;;;;;;15.83;100.00;100542.89;88492;280;23707;-66
2023/10/01 09:34:29;;;;;;;2.60;1.90;;;;;;;15.86;100.00;100550.25;88425;274;136780;-71
2023/10/01 09:36:38;;;;;;;6.70;2.50;;;;;;;15.88;100.00;100547.95;88357;278;137722;-71
2023/10/01 09:38:57;;;;;;;4.30;2.80;;;;;;;15.84;100.00;100544.30;88584;278;24059;-70
2023/10/01 09:41:00;;;;;;;3.60;2.30;;;;;;;15.93;100.00;100558.20;88425;278;137191;-71
2023/10/01 09:43:03;;;;;;;3.00;2.00;;;;;;;15.96;100.00;100559.18;88498;282;22534;-72
2023/10/01 09:45:26;;;;;;;4.90;1.90;;;;;;;16.00;100.00;100561.84;88388;274;137000;-73
2023/10/01 09:47:30;;;;;;;3.10;2.10;;;;;;;16.02;100.00;100562.44;88654;282;25740;-71
2023/10/01 09:49:38;;;;;;;4.70;2.20;;;;;;;15.99;100.00;100561.48;88485;278;137238;-72
2023/10/01 09:51:46;;;;;;;2.30;1.70;;;;;;;15.95;100.00;100557.20;88545;282;24221;-73
2023/10/01 09:53:55;;;;;;;2.90;1.70;;;;;;;15.90;100.00;100556.67;88425;282;137325;-74
2023/10/01 09:55:59;;;;;;;2.10;1.30;;;;;;;15.86;100.00;100559.66;88534;279;21981;-71
2023/10/01 09:58:10;;;;;;;4.10;1.70;;;;;;;15.85;100.00;100558.97;88732;279;137433;-72